createdAt,value
2023-03-19T00:00:39.512Z,7.48
2023-03-19T00:03:06.743Z,7.12
2023-03-19T00:05:34.136Z,6.74
2023-03-19T00:08:01.341Z,6.83
2023-03-19T00:10:28.421Z,6.85
2023-03-19T00:12:55.652Z,6.80
2023-03-19T00:15:22.884Z,6.55
2023-03-19T00:17:50.010Z,6.45
2023-03-19T00:20:18.368Z,6.66
2023-03-19T00:22:45.680Z,6.74
2023-03-19T00:25:12.793Z,6.31
2023-03-19T00:27:39.852Z,6.27
2023-03-19T00:30:08.146Z,6.28
2023-03-19T00:32:36.662Z,6.28
2023-03-19T00:35:06.544Z,6.04
2023-03-19T00:37:37.453Z,5.87
2023-03-19T00:40:05.273Z,5.83
2023-03-19T00:42:34.568Z,5.95
2023-03-19T00:45:01.639Z,6.08
2023-03-19T00:47:28.700Z,5.99
2023-03-19T00:49:56.562Z,5.91
2023-03-19T00:52:23.676Z,5.72
2023-03-19T00:54:51.095Z,5.50
2023-03-19T00:57:19.339Z,5.57
2023-03-19T00:59:46.410Z,5.64
2023-03-19T01:02:13.485Z,5.55
2023-03-19T01:04:41.328Z,5.56
2023-03-19T01:07:08.621Z,5.80
2023-03-19T01:09:36.035Z,6.53
2023-03-19T01:12:04.861Z,7.10
2023-03-19T01:14:33.005Z,7.40
2023-03-19T01:17:00.921Z,7.55
2023-03-19T01:19:28.804Z,7.70
2023-03-19T01:21:55.914Z,7.82
2023-03-19T01:24:24.083Z,7.46
2023-03-19T01:26:54.586Z,7.13
2023-03-19T01:29:28.732Z,7.56
2023-03-19T01:31:58.288Z,7.40
2023-03-19T01:34:42.475Z,7.14
2023-03-19T01:37:12.722Z,6.68
2023-03-19T01:39:41.470Z,6.59
2023-03-19T01:42:12.518Z,6.57
2023-03-19T01:45:02.135Z,6.40
2023-03-19T01:47:42.898Z,6.07
2023-03-19T01:50:31.820Z,5.97
2023-03-19T01:53:39.894Z,5.71
2023-03-19T01:56:17.700Z,5.56
2023-03-19T01:58:59.205Z,5.49
2023-03-19T02:01:51.105Z,5.55
2023-03-19T02:04:19.123Z,5.63
2023-03-19T02:06:46.833Z,5.68
2023-03-19T02:09:15.598Z,5.70
2023-03-19T02:11:42.958Z,5.46
2023-03-19T02:14:10.318Z,5.36
2023-03-19T02:16:37.669Z,5.29
2023-03-19T02:19:09.895Z,5.33
2023-03-19T02:21:37.367Z,5.04
2023-03-19T02:24:23.129Z,5.21
2023-03-19T02:27:04.001Z,5.24
2023-03-19T02:29:31.824Z,5.16
2023-03-19T02:32:00.420Z,5.14
2023-03-19T02:34:27.480Z,5.08
2023-03-19T02:37:01.099Z,4.97
2023-03-19T02:39:53.107Z,5.16
2023-03-19T02:42:21.704Z,5.31
2023-03-19T02:44:48.834Z,5.12
2023-03-19T02:47:16.226Z,5.19
2023-03-19T02:49:43.380Z,5.23
2023-03-19T02:52:10.855Z,4.99
2023-03-19T02:54:37.967Z,5.05
2023-03-19T02:57:05.581Z,5.09
2023-03-19T02:59:32.849Z,5.11
2023-03-19T03:02:00.650Z,5.10
2023-03-19T03:04:29.279Z,4.93
2023-03-19T03:06:56.685Z,4.95
2023-03-19T03:09:23.988Z,5.11
2023-03-19T03:11:51.157Z,5.25
2023-03-19T03:14:18.738Z,5.06
2023-03-19T03:16:46.278Z,5.15
2023-03-19T03:19:13.512Z,4.98
2023-03-19T03:21:41.708Z,4.93
2023-03-19T03:24:09.506Z,4.82
2023-03-19T03:26:38.925Z,4.64
2023-03-19T03:29:07.279Z,4.63
2023-03-19T03:31:34.977Z,4.62
2023-03-19T03:34:02.439Z,4.70
2023-03-19T03:36:29.797Z,4.89
2023-03-19T03:38:57.413Z,4.79
2023-03-19T03:41:24.985Z,4.81
2023-03-19T03:43:52.441Z,4.50
2023-03-19T03:46:19.556Z,4.58
2023-03-19T03:48:51.348Z,4.60
2023-03-19T03:51:19.584Z,4.59
2023-03-19T03:53:47.010Z,5.04
2023-03-19T03:56:14.634Z,5.20
2023-03-19T03:58:41.753Z,5.49
2023-03-19T04:01:15.059Z,5.60
2023-03-19T04:03:42.629Z,5.59
2023-03-19T04:06:14.960Z,5.40
2023-03-19T04:08:42.334Z,5.18
2023-03-19T04:11:09.622Z,5.19
2023-03-19T04:13:37.219Z,5.13
2023-03-19T04:16:08.070Z,5.25
2023-03-19T04:18:35.973Z,5.32
2023-03-19T04:21:04.980Z,5.32
2023-03-19T04:23:32.445Z,5.35
2023-03-19T04:26:01.798Z,5.33
2023-03-19T04:28:30.115Z,5.54
2023-03-19T04:31:04.921Z,5.34
2023-03-19T04:33:34.466Z,5.43
2023-03-19T04:36:01.876Z,5.55
2023-03-19T04:38:29.255Z,5.62
2023-03-19T04:40:56.804Z,5.80
2023-03-19T04:43:24.998Z,5.87
2023-03-19T04:45:52.834Z,5.77
2023-03-19T04:48:22.189Z,5.85
2023-03-19T04:50:53.265Z,6.05
2023-03-19T04:53:20.758Z,5.87
2023-03-19T04:55:48.636Z,5.87
2023-03-19T04:58:20.475Z,6.12
2023-03-19T05:00:55.486Z,6.34
2023-03-19T05:03:31.853Z,6.32
2023-03-19T05:05:59.634Z,6.14
2023-03-19T05:08:27.087Z,6.14
2023-03-19T05:10:54.211Z,6.31
2023-03-19T05:13:21.838Z,6.31
2023-03-19T05:15:54.117Z,6.46
2023-03-19T05:18:21.945Z,6.37
2023-03-19T05:20:49.656Z,6.44
2023-03-19T05:23:23.191Z,6.51
2023-03-19T05:26:07.224Z,6.76
2023-03-19T05:28:57.340Z,6.77
2023-03-19T05:31:34.010Z,7.05
2023-03-19T05:34:01.659Z,7.21
2023-03-19T05:36:31.176Z,7.34
2023-03-19T05:39:09.544Z,7.57
2023-03-19T05:41:38.591Z,7.46
2023-03-19T05:44:07.439Z,7.70
2023-03-19T05:46:45.232Z,8.01
2023-03-19T05:49:12.919Z,8.85
2023-03-19T05:51:40.096Z,9.08
2023-03-19T05:54:08.409Z,9.58
2023-03-19T05:57:14.045Z,10.57
2023-03-19T05:59:49.230Z,11.21
2023-03-19T06:02:25.197Z,11.80
2023-03-19T06:05:02.633Z,12.59
2023-03-19T06:07:31.425Z,13.21
2023-03-19T06:09:59.815Z,13.96
2023-03-19T06:12:27.314Z,14.56
2023-03-19T06:14:54.529Z,15.31
2023-03-19T06:17:41.901Z,15.13
2023-03-19T06:20:11.359Z,15.04
2023-03-19T06:22:38.874Z,15.22
2023-03-19T06:25:06.798Z,15.32
2023-03-19T06:27:37.150Z,15.59
2023-03-19T06:30:19.431Z,15.76
2023-03-19T06:32:47.081Z,16.28
2023-03-19T06:35:14.653Z,16.88
2023-03-19T06:37:44.324Z,17.60
2023-03-19T06:40:11.811Z,17.15
2023-03-19T06:42:39.026Z,17.09
2023-03-19T06:45:07.701Z,17.26
2023-03-19T06:47:34.753Z,17.75
2023-03-19T06:50:02.001Z,17.35
2023-03-19T06:52:29.145Z,18.09
2023-03-19T06:54:56.407Z,18.56
2023-03-19T06:57:23.573Z,19.09
2023-03-19T06:59:51.233Z,19.29
2023-03-19T07:02:18.525Z,18.02
2023-03-19T07:04:45.644Z,18.50
2023-03-19T07:07:12.702Z,18.25
2023-03-19T07:09:39.779Z,18.43
2023-03-19T07:12:07.269Z,18.24
2023-03-19T07:14:34.464Z,19.24
2023-03-19T07:17:01.694Z,19.07
2023-03-19T07:19:28.912Z,19.07
2023-03-19T07:21:56.063Z,19.37
2023-03-19T07:24:23.362Z,19.87
2023-03-19T07:26:50.449Z,19.42
2023-03-19T07:29:17.873Z,19.64
2023-03-19T07:31:45.028Z,20.23
2023-03-19T07:34:12.102Z,20.83
2023-03-19T07:36:39.187Z,21.65
2023-03-19T07:39:06.283Z,21.48
2023-03-19T07:41:33.402Z,21.29
2023-03-19T07:44:00.984Z,23.09
2023-03-19T07:46:28.424Z,22.91
2023-03-19T07:48:55.457Z,23.12
2023-03-19T07:51:22.639Z,22.64
2023-03-19T07:53:49.773Z,23.42
2023-03-19T07:56:17.733Z,24.30
2023-03-19T07:58:45.438Z,23.95
2023-03-19T08:01:12.543Z,22.33
2023-03-19T08:03:39.719Z,22.41
2023-03-19T08:06:06.856Z,24.21
2023-03-19T08:08:35.031Z,25.07
2023-03-19T08:11:02.862Z,25.99
2023-03-19T08:13:30.066Z,26.15
2023-03-19T08:15:57.326Z,27.14
2023-03-19T08:18:24.557Z,27.83
2023-03-19T08:20:51.606Z,26.75
2023-03-19T08:23:19.439Z,27.96
2023-03-19T08:25:46.629Z,27.97
2023-03-19T08:28:13.787Z,28.13
2023-03-19T08:30:41.096Z,29.08
2023-03-19T08:33:11.163Z,30.51
2023-03-19T08:35:38.348Z,30.67
2023-03-19T08:38:05.557Z,28.48
2023-03-19T08:40:32.974Z,28.18
2023-03-19T08:43:00.363Z,29.24
2023-03-19T08:45:27.408Z,28.60
2023-03-19T08:47:54.587Z,28.43
2023-03-19T08:50:21.803Z,24.65
2023-03-19T08:52:49.278Z,25.00
2023-03-19T08:55:17.287Z,26.55
2023-03-19T08:57:44.450Z,27.44
2023-03-19T09:00:12.746Z,27.70
2023-03-19T09:02:40.436Z,26.74
2023-03-19T09:05:07.981Z,26.88
2023-03-19T09:07:35.303Z,28.40
2023-03-19T09:10:02.558Z,29.40
2023-03-19T09:12:29.617Z,30.08
2023-03-19T09:14:56.800Z,30.99
2023-03-19T09:17:24.118Z,30.78
2023-03-19T09:19:51.273Z,29.99
2023-03-19T09:22:19.044Z,27.45
2023-03-19T09:24:46.326Z,28.55
2023-03-19T09:27:13.560Z,30.93
2023-03-19T09:29:41.246Z,30.95
2023-03-19T09:32:08.572Z,31.25
2023-03-19T09:34:35.817Z,31.54
2023-03-19T09:37:03.048Z,31.49
2023-03-19T09:39:30.242Z,32.04
2023-03-19T09:42:09.932Z,30.44
2023-03-19T09:44:39.838Z,30.64
2023-03-19T09:47:19.930Z,31.31
2023-03-19T09:49:49.196Z,32.27
2023-03-19T09:52:41.453Z,32.05
2023-03-19T09:55:19.567Z,30.96
2023-03-19T09:57:47.827Z,31.31
2023-03-19T10:00:22.707Z,31.85
2023-03-19T10:03:16.309Z,33.46
2023-03-19T10:05:52.425Z,33.32
2023-03-19T10:08:39.428Z,30.64
2023-03-19T10:11:29.758Z,29.45
2023-03-19T10:14:34.067Z,27.90
2023-03-19T10:17:04.412Z,27.92
2023-03-19T10:20:07.424Z,27.24
2023-03-19T10:22:59.408Z,27.96
2023-03-19T10:25:28.532Z,29.53
2023-03-19T10:28:11.535Z,29.73
2023-03-19T10:30:39.450Z,29.13
2023-03-19T10:33:19.165Z,29.83
2023-03-19T10:35:48.913Z,31.49
2023-03-19T10:38:24.647Z,30.36
2023-03-19T10:41:21.178Z,31.21
2023-03-19T10:43:56.956Z,30.94
2023-03-19T10:46:24.283Z,30.44
2023-03-19T10:48:51.393Z,29.13
2023-03-19T10:51:27.381Z,30.14
2023-03-19T10:53:57.875Z,30.42
2023-03-19T10:56:29.534Z,30.33
2023-03-19T10:58:59.128Z,30.79
2023-03-19T11:01:38.384Z,31.39
2023-03-19T11:04:14.735Z,30.84
2023-03-19T11:06:41.898Z,29.57
2023-03-19T11:09:08.928Z,28.92
2023-03-19T11:11:45.222Z,29.67
2023-03-19T11:14:17.177Z,29.98
2023-03-19T11:16:57.589Z,29.72
2023-03-19T11:19:30.285Z,29.92
2023-03-19T11:22:01.638Z,30.43
2023-03-19T11:24:32.866Z,29.18
2023-03-19T11:27:00.648Z,28.32
2023-03-19T11:29:29.003Z,28.45
2023-03-19T11:32:21.517Z,27.94
2023-03-19T11:35:29.969Z,27.04
2023-03-19T11:37:59.936Z,27.90
2023-03-19T11:40:48.243Z,28.08
2023-03-19T11:43:21.295Z,27.64
2023-03-19T11:46:06.301Z,27.68
2023-03-19T11:48:53.043Z,28.50
2023-03-19T11:51:30.217Z,29.06
2023-03-19T11:54:15.580Z,27.86
2023-03-19T11:56:42.661Z,27.99
2023-03-19T11:59:45.395Z,27.50
2023-03-19T12:02:38.538Z,27.09
2023-03-19T12:05:19.890Z,26.34
2023-03-19T12:08:17.302Z,25.57
2023-03-19T12:10:53.818Z,25.21
2023-03-19T12:13:48.523Z,25.47
2023-03-19T12:16:45.832Z,26.18
2023-03-19T12:19:37.633Z,26.18
2023-03-19T12:22:14.740Z,26.22
2023-03-19T12:25:09.965Z,24.46
2023-03-19T12:27:48.079Z,23.99
2023-03-19T12:30:15.096Z,24.60
2023-03-19T12:32:55.766Z,24.77
2023-03-19T12:35:35.603Z,24.64
2023-03-19T12:38:09.734Z,23.61
2023-03-19T12:40:45.989Z,23.07
2023-03-19T12:43:33.283Z,22.49
2023-03-19T12:46:17.892Z,22.95
2023-03-19T12:49:06.432Z,22.40
2023-03-19T12:51:43.531Z,22.18
2023-03-19T12:54:18.571Z,22.19
2023-03-19T12:56:45.571Z,22.21
2023-03-19T12:59:30.964Z,22.55
2023-03-19T13:02:09.927Z,22.02
2023-03-19T13:04:43.092Z,21.96
2023-03-19T13:07:28.556Z,21.38
2023-03-19T13:10:19.238Z,21.16
2023-03-19T13:12:48.212Z,20.93
2023-03-19T13:15:24.475Z,20.42
2023-03-19T13:17:57.409Z,20.53
2023-03-19T13:20:35.800Z,20.00
2023-03-19T13:23:05.954Z,19.77
2023-03-19T13:25:42.581Z,19.57
2023-03-19T13:28:22.891Z,19.55
2023-03-19T13:31:05.181Z,19.00
2023-03-19T13:33:35.192Z,18.84
2023-03-19T13:36:05.431Z,18.97
2023-03-19T13:38:50.470Z,18.99
2023-03-19T13:41:32.884Z,19.12
2023-03-19T13:44:18.780Z,19.64
2023-03-19T13:46:46.374Z,19.69
2023-03-19T13:49:19.479Z,19.84
2023-03-19T13:51:50.703Z,19.68
2023-03-19T13:54:23.196Z,19.06
2023-03-19T13:57:01.335Z,19.57
2023-03-19T13:59:33.151Z,19.62
2023-03-19T14:02:01.493Z,19.58
2023-03-19T14:04:33.265Z,19.42
2023-03-19T14:07:21.321Z,19.51
2023-03-19T14:10:02.793Z,19.63
2023-03-19T14:12:38.320Z,19.76
2023-03-19T14:15:08.322Z,19.58
2023-03-19T14:17:38.333Z,19.58
2023-03-19T14:20:32.845Z,19.11
2023-03-19T14:23:11.343Z,19.26
2023-03-19T14:26:05.931Z,19.12
2023-03-19T14:28:37.358Z,18.81
2023-03-19T14:31:05.644Z,18.53
2023-03-19T14:34:02.968Z,18.38
2023-03-19T14:36:31.049Z,18.42
2023-03-19T14:39:07.794Z,18.31
2023-03-19T14:41:40.247Z,18.53
2023-03-19T14:44:23.231Z,18.63
2023-03-19T14:47:08.953Z,18.36
2023-03-19T14:50:07.626Z,18.29
2023-03-19T14:52:49.709Z,18.12
2023-03-19T14:55:17.690Z,18.03
2023-03-19T14:57:44.828Z,17.99
2023-03-19T15:00:18.246Z,18.14
2023-03-19T15:02:50.373Z,18.27
2023-03-19T15:05:38.056Z,17.87
2023-03-19T15:08:10.694Z,17.82
2023-03-19T15:11:07.172Z,17.54
2023-03-19T15:13:46.131Z,17.60
2023-03-19T15:16:25.058Z,17.39
2023-03-19T15:18:52.351Z,17.34
2023-03-19T15:21:20.517Z,17.38
2023-03-19T15:23:49.183Z,17.36
2023-03-19T15:26:18.599Z,17.41
2023-03-19T15:28:53.834Z,17.50
2023-03-19T15:31:37.450Z,17.45
2023-03-19T15:34:23.866Z,17.27
2023-03-19T15:37:12.807Z,16.84
2023-03-19T15:39:51.497Z,16.65
2023-03-19T15:42:20.501Z,16.79
2023-03-19T15:44:53.322Z,16.63
2023-03-19T15:47:24.638Z,16.63
2023-03-19T15:50:17.258Z,16.59
2023-03-19T15:52:48.756Z,16.52
2023-03-19T15:55:17.101Z,16.39
2023-03-19T15:57:45.142Z,16.30
2023-03-19T16:00:14.217Z,16.19
2023-03-19T16:02:43.459Z,16.13
2023-03-19T16:05:43.073Z,16.08
2023-03-19T16:08:26.102Z,15.81
2023-03-19T16:10:53.403Z,15.70
2023-03-19T16:13:26.908Z,15.52
2023-03-19T16:15:56.080Z,15.38
2023-03-19T16:18:25.500Z,15.25
2023-03-19T16:21:03.549Z,14.97
2023-03-19T16:23:36.106Z,14.73
2023-03-19T16:26:24.668Z,14.52
2023-03-19T16:29:16.620Z,14.35
2023-03-19T16:31:46.220Z,14.14
2023-03-19T16:34:25.695Z,14.14
2023-03-19T16:36:52.813Z,13.99
2023-03-19T16:39:26.083Z,13.96
2023-03-19T16:42:38.117Z,13.84
2023-03-19T16:45:17.667Z,13.51
2023-03-19T16:47:52.387Z,13.49
2023-03-19T16:50:21.882Z,13.35
2023-03-19T16:52:49.583Z,13.19
2023-03-19T16:55:34.605Z,13.26
2023-03-19T16:58:07.818Z,13.13
2023-03-19T17:00:35.780Z,13.13
2023-03-19T17:03:03.000Z,13.07
2023-03-19T17:05:30.542Z,12.92
2023-03-19T17:07:57.903Z,12.76
2023-03-19T17:10:28.045Z,12.66
2023-03-19T17:12:56.410Z,12.61
2023-03-19T17:15:42.094Z,12.60
2023-03-19T17:18:30.439Z,12.46
2023-03-19T17:21:05.914Z,12.33
2023-03-19T17:23:34.816Z,12.17
2023-03-19T17:26:03.254Z,12.21
2023-03-19T17:28:32.448Z,12.17
2023-03-19T17:30:59.777Z,12.15
2023-03-19T17:33:29.509Z,12.20
2023-03-19T17:35:58.421Z,12.14
2023-03-19T17:38:34.885Z,12.15
2023-03-19T17:41:02.525Z,12.30
2023-03-19T17:43:29.711Z,12.21
2023-03-19T17:45:57.066Z,12.15
2023-03-19T17:48:26.112Z,12.14
2023-03-19T17:50:55.769Z,12.19
2023-03-19T17:53:23.032Z,12.14
2023-03-19T17:55:50.362Z,12.21
2023-03-19T17:58:20.106Z,12.15
2023-03-19T18:00:48.882Z,12.05
2023-03-19T18:03:19.239Z,12.09
2023-03-19T18:05:46.380Z,12.09
2023-03-19T18:08:15.976Z,12.17
2023-03-19T18:10:43.529Z,12.17
2023-03-19T18:13:10.921Z,12.11
2023-03-19T18:15:40.312Z,11.94
2023-03-19T18:18:13.628Z,11.75
2023-03-19T18:20:41.245Z,11.90
2023-03-19T18:23:08.443Z,11.75
2023-03-19T18:25:35.915Z,11.72
2023-03-19T18:28:03.949Z,11.77
2023-03-19T18:30:33.376Z,11.84
2023-03-19T18:33:02.966Z,11.63
2023-03-19T18:35:32.434Z,11.68
2023-03-19T18:38:00.365Z,11.63
2023-03-19T18:40:32.109Z,11.55
2023-03-19T18:42:59.641Z,11.58
2023-03-19T18:45:30.305Z,11.56
2023-03-19T18:47:58.063Z,11.57
2023-03-19T18:50:29.392Z,11.63
2023-03-19T18:52:56.994Z,11.56
2023-03-19T18:55:29.456Z,11.43
2023-03-19T18:58:02.231Z,11.32
2023-03-19T19:00:34.965Z,11.18
2023-03-19T19:03:02.986Z,11.12
2023-03-19T19:05:31.999Z,10.99
2023-03-19T19:08:01.871Z,10.86
2023-03-19T19:10:34.615Z,10.65
2023-03-19T19:13:02.309Z,10.49
2023-03-19T19:15:36.617Z,10.42
2023-03-19T19:18:16.147Z,10.30
2023-03-19T19:20:45.954Z,10.16
2023-03-19T19:23:14.214Z,10.14
2023-03-19T19:25:42.795Z,10.15
2023-03-19T19:28:28.123Z,10.10
2023-03-19T19:30:57.487Z,10.12
2023-03-19T19:33:34.832Z,10.10
2023-03-19T19:36:03.054Z,9.87
2023-03-19T19:38:31.302Z,9.69
2023-03-19T19:41:00.379Z,9.50
2023-03-19T19:43:31.211Z,9.52
2023-03-19T19:45:58.849Z,9.40
2023-03-19T19:48:31.532Z,9.56
2023-03-19T19:50:58.687Z,9.50
2023-03-19T19:53:26.444Z,9.35
2023-03-19T19:55:53.975Z,9.34
2023-03-19T19:58:28.087Z,9.22
2023-03-19T20:01:03.424Z,9.17
2023-03-19T20:03:33.383Z,9.27
2023-03-19T20:06:01.521Z,9.34
2023-03-19T20:08:28.988Z,9.23
2023-03-19T20:10:56.982Z,9.23
2023-03-19T20:13:35.516Z,9.25
2023-03-19T20:16:03.015Z,9.30
2023-03-19T20:18:33.401Z,9.24
2023-03-19T20:21:01.174Z,9.32
2023-03-19T20:23:28.363Z,9.37
2023-03-19T20:25:55.594Z,9.50
2023-03-19T20:28:33.797Z,9.73
2023-03-19T20:31:04.557Z,9.72
2023-03-19T20:33:34.475Z,9.67
2023-03-19T20:36:02.063Z,9.41
2023-03-19T20:38:29.600Z,9.26
2023-03-19T20:40:58.906Z,9.02
2023-03-19T20:43:34.204Z,8.99
2023-03-19T20:46:04.598Z,9.04
2023-03-19T20:48:32.629Z,8.91
2023-03-19T20:51:01.517Z,8.89
2023-03-19T20:53:29.032Z,9.03
2023-03-19T20:55:56.614Z,8.91
2023-03-19T20:58:36.953Z,8.82
2023-03-19T21:01:04.388Z,8.79
2023-03-19T21:03:32.765Z,8.74
2023-03-19T21:06:06.050Z,8.72
2023-03-19T21:08:39.843Z,8.85
2023-03-19T21:11:12.626Z,8.99
2023-03-19T21:13:39.754Z,9.09
2023-03-19T21:16:10.804Z,9.02
2023-03-19T21:18:37.942Z,8.75
2023-03-19T21:21:05.280Z,8.52
2023-03-19T21:23:35.866Z,8.28
2023-03-19T21:26:23.867Z,8.28
2023-03-19T21:28:55.129Z,8.23
2023-03-19T21:31:22.780Z,8.24
2023-03-19T21:33:51.625Z,8.31
2023-03-19T21:36:19.233Z,8.15
2023-03-19T21:38:46.612Z,8.16
2023-03-19T21:41:28.887Z,8.29
2023-03-19T21:43:57.791Z,8.29
2023-03-19T21:46:26.702Z,8.15
2023-03-19T21:48:54.752Z,8.22
2023-03-19T21:51:22.843Z,8.07
2023-03-19T21:53:49.962Z,8.07
2023-03-19T21:56:33.395Z,8.05
2023-03-19T21:59:03.699Z,8.01
2023-03-19T22:01:31.145Z,7.94
2023-03-19T22:03:58.429Z,8.06
2023-03-19T22:06:25.925Z,8.05
2023-03-19T22:08:56.331Z,8.01
2023-03-19T22:11:29.565Z,7.97
2023-03-19T22:14:04.709Z,8.00
2023-03-19T22:16:32.784Z,8.02
2023-03-19T22:19:00.027Z,7.95
2023-03-19T22:21:29.523Z,7.99
2023-03-19T22:23:56.844Z,8.01
2023-03-19T22:26:29.974Z,8.07
2023-03-19T22:28:59.382Z,8.26
2023-03-19T22:31:26.954Z,8.28
2023-03-19T22:33:54.349Z,8.21
2023-03-19T22:36:21.459Z,8.09
2023-03-19T22:38:49.429Z,8.04
2023-03-19T22:41:45.818Z,8.03
2023-03-19T22:44:39.490Z,7.93
2023-03-19T22:47:06.908Z,7.95
2023-03-19T22:49:34.089Z,7.99
2023-03-19T22:52:01.646Z,7.97
2023-03-19T22:54:28.795Z,8.08
2023-03-19T22:56:56.076Z,8.07
2023-03-19T22:59:23.170Z,8.05
2023-03-19T23:01:50.226Z,8.07
2023-03-19T23:04:23.184Z,8.17
2023-03-19T23:06:51.862Z,8.26
2023-03-19T23:09:32.369Z,8.18
2023-03-19T23:12:00.192Z,8.04
2023-03-19T23:14:30.840Z,8.05
2023-03-19T23:17:04.154Z,7.97
2023-03-19T23:19:33.317Z,7.95
2023-03-19T23:22:01.312Z,7.85
2023-03-19T23:24:30.616Z,7.85
2023-03-19T23:26:59.103Z,7.85
2023-03-19T23:29:36.038Z,7.83
2023-03-19T23:32:04.517Z,7.98
2023-03-19T23:34:39.857Z,8.09
2023-03-19T23:37:13.230Z,8.08
2023-03-19T23:39:41.183Z,8.08
2023-03-19T23:42:11.920Z,7.98
2023-03-19T23:44:39.033Z,7.98
2023-03-19T23:47:06.267Z,7.88
2023-03-19T23:49:33.501Z,7.83
2023-03-19T23:52:02.426Z,7.76
2023-03-19T23:54:29.440Z,7.71
2023-03-19T23:56:59.705Z,7.62
2023-03-19T23:59:33.864Z,7.69
